sensor_id;sensor_type;location;lat;lon;timestamp;P1;durP1;ratioP1;P2;durP2;ratioP2
77826;SDS011;67016;42.508;25.678;2023-06-14T07:44:38;6.95;;;4.20;;
77826;SDS011;67016;42.508;25.678;2023-06-14T07:47:04;7.30;;;4.18;;
77826;SDS011;67016;42.508;25.678;2023-06-14T08:02:56;9.23;;;5.40;;
77826;SDS011;67016;42.508;25.678;2023-06-14T08:08:47;6.15;;;4.60;;
77826;SDS011;67016;42.508;25.678;2023-06-14T08:16:44;6.80;;;4.38;;
77826;SDS011;67016;42.508;25.678;2023-06-14T08:19:10;6.70;;;4.00;;
77826;SDS011;67016;42.508;25.678;2023-06-14T08:21:37;6.93;;;4.22;;
77826;SDS011;67016;42.508;25.678;2023-06-14T08:24:26;6.57;;;4.50;;
77826;SDS011;67016;42.508;25.678;2023-06-14T08:27:44;6.75;;;4.53;;
77826;SDS011;67016;42.508;25.678;2023-06-14T08:30:16;7.38;;;4.70;;
77826;SDS011;67016;42.508;25.678;2023-06-14T08:32:46;7.82;;;4.78;;
77826;SDS011;67016;42.508;25.678;2023-06-14T08:38:36;7.45;;;4.65;;
77826;SDS011;67016;42.508;25.678;2023-06-14T08:44:18;9.23;;;4.50;;
77826;SDS011;67016;42.508;25.678;2023-06-14T08:46:48;6.03;;;4.20;;
77826;SDS011;67016;42.508;25.678;2023-06-14T08:49:15;5.85;;;4.10;;
77826;SDS011;67016;42.508;25.678;2023-06-14T08:51:44;6.13;;;4.47;;
77826;SDS011;67016;42.508;25.678;2023-06-14T08:54:21;7.80;;;4.82;;
77826;SDS011;67016;42.508;25.678;2023-06-14T08:56:54;15.05;;;4.50;;
77826;SDS011;67016;42.508;25.678;2023-06-14T08:59:29;7.70;;;4.25;;
77826;SDS011;67016;42.508;25.678;2023-06-14T09:02:06;5.57;;;4.13;;
77826;SDS011;67016;42.508;25.678;2023-06-14T09:04:39;5.43;;;3.80;;
77826;SDS011;67016;42.508;25.678;2023-06-14T09:07:09;5.15;;;4.32;;
77826;SDS011;67016;42.508;25.678;2023-06-14T09:12:26;7.43;;;6.15;;
77826;SDS011;67016;42.508;25.678;2023-06-14T09:14:57;7.95;;;5.93;;
77826;SDS011;67016;42.508;25.678;2023-06-14T09:17:23;9.75;;;6.28;;
77826;SDS011;67016;42.508;25.678;2023-06-14T09:19:49;10.80;;;6.35;;
77826;SDS011;67016;42.508;25.678;2023-06-14T09:22:17;10.10;;;6.32;;
77826;SDS011;67016;42.508;25.678;2023-06-14T09:24:45;7.38;;;5.53;;
77826;SDS011;67016;42.508;25.678;2023-06-14T09:27:20;7.80;;;5.43;;
77826;SDS011;67016;42.508;25.678;2023-06-14T09:33:49;7.10;;;5.20;;
77826;SDS011;67016;42.508;25.678;2023-06-14T09:36:17;6.10;;;4.50;;
77826;SDS011;67016;42.508;25.678;2023-06-14T09:42:02;12.07;;;5.82;;
77826;SDS011;67016;42.508;25.678;2023-06-14T09:44:55;10.23;;;5.93;;
77826;SDS011;67016;42.508;25.678;2023-06-14T09:51:10;9.40;;;5.35;;
77826;SDS011;67016;42.508;25.678;2023-06-14T09:53:37;5.80;;;4.90;;
77826;SDS011;67016;42.508;25.678;2023-06-14T09:56:17;5.60;;;5.07;;
77826;SDS011;67016;42.508;25.678;2023-06-14T09:58:58;7.43;;;5.22;;
77826;SDS011;67016;42.508;25.678;2023-06-14T10:01:45;6.90;;;4.95;;
77826;SDS011;67016;42.508;25.678;2023-06-14T10:07:31;7.55;;;4.90;;
77826;SDS011;67016;42.508;25.678;2023-06-14T10:13:03;8.70;;;4.80;;
77826;SDS011;67016;42.508;25.678;2023-06-14T10:15:35;7.55;;;5.40;;
77826;SDS011;67016;42.508;25.678;2023-06-14T10:18:24;9.82;;;5.45;;
77826;SDS011;67016;42.508;25.678;2023-06-14T10:24:45;5.00;;;4.45;;
77826;SDS011;67016;42.508;25.678;2023-06-14T10:27:20;6.82;;;4.93;;
77826;SDS011;67016;42.508;25.678;2023-06-14T10:32:55;5.80;;;4.63;;
77826;SDS011;67016;42.508;25.678;2023-06-14T10:35:45;6.18;;;4.25;;
77826;SDS011;67016;42.508;25.678;2023-06-14T10:44:57;5.57;;;4.13;;
77826;SDS011;67016;42.508;25.678;2023-06-14T10:47:43;9.25;;;4.72;;
77826;SDS011;67016;42.508;25.678;2023-06-14T10:50:09;9.57;;;4.25;;
77826;SDS011;67016;42.508;25.678;2023-06-14T10:52:40;9.02;;;4.20;;
77826;SDS011;67016;42.508;25.678;2023-06-14T10:55:11;6.75;;;3.83;;
77826;SDS011;67016;42.508;25.678;2023-06-14T10:57:42;4.30;;;3.83;;
77826;SDS011;67016;42.508;25.678;2023-06-14T11:00:23;5.15;;;3.78;;
77826;SDS011;67016;42.508;25.678;2023-06-14T11:05:31;6.10;;;3.47;;
77826;SDS011;67016;42.508;25.678;2023-06-14T11:11:18;3.92;;;3.30;;
77826;SDS011;67016;42.508;25.678;2023-06-14T11:13:44;6.30;;;3.50;;
77826;SDS011;67016;42.508;25.678;2023-06-14T11:16:12;6.97;;;3.58;;
77826;SDS011;67016;42.508;25.678;2023-06-14T11:18:40;6.60;;;3.60;;
77826;SDS011;67016;42.508;25.678;2023-06-14T11:21:06;4.65;;;3.47;;
77826;SDS011;67016;42.508;25.678;2023-06-14T11:23:34;4.15;;;3.38;;
77826;SDS011;67016;42.508;25.678;2023-06-14T11:26:00;6.18;;;3.90;;
77826;SDS011;67016;42.508;25.678;2023-06-14T11:28:39;8.60;;;4.97;;
77826;SDS011;67016;42.508;25.678;2023-06-14T11:31:06;8.95;;;5.07;;
77826;SDS011;67016;42.508;25.678;2023-06-14T11:33:32;9.05;;;5.22;;
77826;SDS011;67016;42.508;25.678;2023-06-14T11:36:01;12.68;;;5.60;;
77826;SDS011;67016;42.508;25.678;2023-06-14T11:38:27;9.63;;;5.45;;
77826;SDS011;67016;42.508;25.678;2023-06-14T11:40:58;6.82;;;5.05;;
77826;SDS011;67016;42.508;25.678;2023-06-14T11:43:24;7.63;;;5.28;;
77826;SDS011;67016;42.508;25.678;2023-06-14T11:45:51;9.48;;;5.10;;
77826;SDS011;67016;42.508;25.678;2023-06-14T11:48:18;5.22;;;4.45;;
77826;SDS011;67016;42.508;25.678;2023-06-14T11:50:49;5.55;;;4.38;;
77826;SDS011;67016;42.508;25.678;2023-06-14T11:53:14;5.95;;;4.38;;
77826;SDS011;67016;42.508;25.678;2023-06-14T11:55:42;5.20;;;4.70;;
77826;SDS011;67016;42.508;25.678;2023-06-14T11:58:10;9.98;;;4.78;;
77826;SDS011;67016;42.508;25.678;2023-06-14T12:00:37;5.13;;;4.63;;
77826;SDS011;67016;42.508;25.678;2023-06-14T12:03:04;5.57;;;4.72;;
77826;SDS011;67016;42.508;25.678;2023-06-14T12:05:30;10.98;;;5.20;;
77826;SDS011;67016;42.508;25.678;2023-06-14T12:07:59;7.45;;;4.97;;
77826;SDS011;67016;42.508;25.678;2023-06-14T12:10:27;11.65;;;5.57;;
77826;SDS011;67016;42.508;25.678;2023-06-14T12:12:57;7.10;;;4.70;;
77826;SDS011;67016;42.508;25.678;2023-06-14T12:15:24;10.95;;;4.88;;
77826;SDS011;67016;42.508;25.678;2023-06-14T12:17:50;6.78;;;4.93;;
77826;SDS011;67016;42.508;25.678;2023-06-14T12:20:17;6.35;;;4.93;;
77826;SDS011;67016;42.508;25.678;2023-06-14T12:22:52;7.03;;;4.55;;
77826;SDS011;67016;42.508;25.678;2023-06-14T12:25:32;6.57;;;4.55;;
77826;SDS011;67016;42.508;25.678;2023-06-14T12:28:15;7.38;;;4.72;;
77826;SDS011;67016;42.508;25.678;2023-06-14T12:30:41;8.05;;;4.50;;
77826;SDS011;67016;42.508;25.678;2023-06-14T12:36:33;6.50;;;4.38;;
77826;SDS011;67016;42.508;25.678;2023-06-14T12:42:26;6.70;;;3.83;;
77826;SDS011;67016;42.508;25.678;2023-06-14T12:45:02;5.15;;;4.07;;
77826;SDS011;67016;42.508;25.678;2023-06-14T12:47:46;6.78;;;3.63;;
77826;SDS011;67016;42.508;25.678;2023-06-14T12:50:18;5.13;;;3.47;;
77826;SDS011;67016;42.508;25.678;2023-06-14T12:52:43;3.70;;;3.40;;
77826;SDS011;67016;42.508;25.678;2023-06-14T12:55:09;6.40;;;4.10;;
77826;SDS011;67016;42.508;25.678;2023-06-14T12:57:35;6.05;;;3.63;;
77826;SDS011;67016;42.508;25.678;2023-06-14T13:00:03;4.82;;;3.17;;
77826;SDS011;67016;42.508;25.678;2023-06-14T13:02:31;4.00;;;3.70;;
77826;SDS011;67016;42.508;25.678;2023-06-14T13:04:58;3.70;;;3.28;;
77826;SDS011;67016;42.508;25.678;2023-06-14T13:17:44;3.58;;;3.28;;
77826;SDS011;67016;42.508;25.678;2023-06-14T13:20:13;3.78;;;3.17;;
77826;SDS011;67016;42.508;25.678;2023-06-14T13:22:40;5.95;;;3.35;;
77826;SDS011;67016;42.508;25.678;2023-06-14T13:25:10;3.65;;;3.10;;
77826;SDS011;67016;42.508;25.678;2023-06-14T13:31:23;5.20;;;3.30;;
77826;SDS011;67016;42.508;25.678;2023-06-14T13:33:54;4.38;;;3.97;;
77826;SDS011;67016;42.508;25.678;2023-06-14T13:36:20;6.40;;;3.63;;
77826;SDS011;67016;42.508;25.678;2023-06-14T13:38:46;4.68;;;3.28;;
77826;SDS011;67016;42.508;25.678;2023-06-14T13:41:12;5.35;;;3.80;;
77826;SDS011;67016;42.508;25.678;2023-06-14T13:46:04;5.80;;;3.70;;
77826;SDS011;67016;42.508;25.678;2023-06-14T13:48:30;5.35;;;3.47;;
77826;SDS011;67016;42.508;25.678;2023-06-14T13:54:14;4.88;;;3.50;;
77826;SDS011;67016;42.508;25.678;2023-06-14T13:57:19;6.68;;;3.50;;
77826;SDS011;67016;42.508;25.678;2023-06-14T13:59:45;5.28;;;3.65;;
77826;SDS011;67016;42.508;25.678;2023-06-14T14:02:11;4.25;;;3.85;;
77826;SDS011;67016;42.508;25.678;2023-06-14T14:04:37;3.78;;;3.20;;
77826;SDS011;67016;42.508;25.678;2023-06-14T14:07:04;3.92;;;3.53;;
77826;SDS011;67016;42.508;25.678;2023-06-14T14:09:31;6.72;;;3.45;;
77826;SDS011;67016;42.508;25.678;2023-06-14T14:11:58;5.65;;;3.00;;
77826;SDS011;67016;42.508;25.678;2023-06-14T14:14:24;5.60;;;3.05;;
77826;SDS011;67016;42.508;25.678;2023-06-14T14:16:50;5.95;;;5.05;;
77826;SDS011;67016;42.508;25.678;2023-06-14T14:19:17;4.95;;;4.28;;
77826;SDS011;67016;42.508;25.678;2023-06-14T14:21:47;4.70;;;2.97;;
77826;SDS011;67016;42.508;25.678;2023-06-14T14:24:13;5.95;;;3.00;;
77826;SDS011;67016;42.508;25.678;2023-06-14T14:26:39;4.05;;;3.20;;
77826;SDS011;67016;42.508;25.678;2023-06-14T14:29:05;5.40;;;3.13;;
77826;SDS011;67016;42.508;25.678;2023-06-14T14:31:31;3.67;;;2.90;;
77826;SDS011;67016;42.508;25.678;2023-06-14T14:33:57;3.10;;;2.80;;
77826;SDS011;67016;42.508;25.678;2023-06-14T14:36:23;3.10;;;2.90;;
77826;SDS011;67016;42.508;25.678;2023-06-14T14:38:49;3.42;;;2.90;;
77826;SDS011;67016;42.508;25.678;2023-06-14T14:41:17;3.50;;;3.10;;
77826;SDS011;67016;42.508;25.678;2023-06-14T14:43:43;3.83;;;2.55;;
77826;SDS011;67016;42.508;25.678;2023-06-14T14:46:09;4.25;;;2.70;;
77826;SDS011;67016;42.508;25.678;2023-06-14T14:48:34;5.13;;;2.63;;
77826;SDS011;67016;42.508;25.678;2023-06-14T14:51:00;5.50;;;2.83;;
77826;SDS011;67016;42.508;25.678;2023-06-14T14:53:27;3.35;;;2.85;;
77826;SDS011;67016;42.508;25.678;2023-06-14T14:55:53;7.35;;;2.78;;
77826;SDS011;67016;42.508;25.678;2023-06-14T14:58:19;3.30;;;2.95;;
77826;SDS011;67016;42.508;25.678;2023-06-14T15:00:45;3.10;;;2.30;;
77826;SDS011;67016;42.508;25.678;2023-06-14T15:03:11;3.17;;;2.88;;
77826;SDS011;67016;42.508;25.678;2023-06-14T15:05:37;6.18;;;2.90;;
77826;SDS011;67016;42.508;25.678;2023-06-14T15:08:03;3.63;;;2.72;;
77826;SDS011;67016;42.508;25.678;2023-06-14T15:10:35;3.17;;;2.53;;
77826;SDS011;67016;42.508;25.678;2023-06-14T15:13:01;3.72;;;2.63;;
77826;SDS011;67016;42.508;25.678;2023-06-14T15:15:27;4.10;;;2.50;;
77826;SDS011;67016;42.508;25.678;2023-06-14T15:21:07;2.97;;;2.55;;
77826;SDS011;67016;42.508;25.678;2023-06-14T15:23:32;4.38;;;2.67;;
77826;SDS011;67016;42.508;25.678;2023-06-14T15:25:58;3.53;;;3.22;;
77826;SDS011;67016;42.508;25.678;2023-06-14T15:28:24;4.40;;;2.60;;
77826;SDS011;67016;42.508;25.678;2023-06-14T15:30:53;8.85;;;3.50;;
77826;SDS011;67016;42.508;25.678;2023-06-14T15:33:19;6.30;;;3.28;;
77826;SDS011;67016;42.508;25.678;2023-06-14T15:35:46;5.97;;;2.38;;
77826;SDS011;67016;42.508;25.678;2023-06-14T15:38:12;4.05;;;2.60;;
77826;SDS011;67016;42.508;25.678;2023-06-14T15:40:37;4.68;;;2.78;;
77826;SDS011;67016;42.508;25.678;2023-06-14T15:43:03;3.50;;;2.53;;
77826;SDS011;67016;42.508;25.678;2023-06-14T15:45:29;17.48;;;8.45;;
77826;SDS011;67016;42.508;25.678;2023-06-14T15:47:55;4.30;;;2.50;;
77826;SDS011;67016;42.508;25.678;2023-06-14T15:50:21;9.75;;;6.00;;
77826;SDS011;67016;42.508;25.678;2023-06-14T15:52:47;4.20;;;2.80;;
77826;SDS011;67016;42.508;25.678;2023-06-14T15:55:13;3.72;;;3.40;;
77826;SDS011;67016;42.508;25.678;2023-06-14T15:57:39;3.33;;;2.58;;
77826;SDS011;67016;42.508;25.678;2023-06-14T16:00:05;5.47;;;3.53;;
77826;SDS011;67016;42.508;25.678;2023-06-14T16:02:31;5.82;;;2.83;;
77826;SDS011;67016;42.508;25.678;2023-06-14T16:04:57;5.78;;;3.38;;
77826;SDS011;67016;42.508;25.678;2023-06-14T16:07:23;3.42;;;3.00;;
77826;SDS011;67016;42.508;25.678;2023-06-14T16:09:49;4.18;;;3.17;;
77826;SDS011;67016;42.508;25.678;2023-06-14T16:12:15;6.32;;;3.20;;
77826;SDS011;67016;42.508;25.678;2023-06-14T16:14:40;4.93;;;3.50;;
77826;SDS011;67016;42.508;25.678;2023-06-14T16:17:06;12.05;;;9.93;;
77826;SDS011;67016;42.508;25.678;2023-06-14T16:19:32;6.80;;;4.70;;
77826;SDS011;67016;42.508;25.678;2023-06-14T16:21:57;7.85;;;3.20;;
77826;SDS011;67016;42.508;25.678;2023-06-14T16:24:23;4.40;;;3.53;;
77826;SDS011;67016;42.508;25.678;2023-06-14T16:26:49;3.35;;;3.03;;
77826;SDS011;67016;42.508;25.678;2023-06-14T16:29:18;6.67;;;3.30;;
77826;SDS011;67016;42.508;25.678;2023-06-14T16:31:43;4.03;;;3.35;;
77826;SDS011;67016;42.508;25.678;2023-06-14T16:34:09;5.10;;;3.42;;
77826;SDS011;67016;42.508;25.678;2023-06-14T16:36:36;9.85;;;3.40;;
77826;SDS011;67016;42.508;25.678;2023-06-14T16:39:03;5.15;;;3.80;;
77826;SDS011;67016;42.508;25.678;2023-06-14T16:41:30;3.90;;;3.08;;
77826;SDS011;67016;42.508;25.678;2023-06-14T16:43:56;4.57;;;3.35;;
77826;SDS011;67016;42.508;25.678;2023-06-14T16:46:32;8.18;;;3.45;;
77826;SDS011;67016;42.508;25.678;2023-06-14T16:48:58;6.80;;;3.38;;
77826;SDS011;67016;42.508;25.678;2023-06-14T16:51:25;3.60;;;3.30;;
77826;SDS011;67016;42.508;25.678;2023-06-14T16:53:51;7.65;;;3.50;;
77826;SDS011;67016;42.508;25.678;2023-06-14T16:56:19;5.55;;;3.50;;
77826;SDS011;67016;42.508;25.678;2023-06-14T16:58:45;3.58;;;3.13;;
77826;SDS011;67016;42.508;25.678;2023-06-14T17:01:11;5.53;;;3.33;;
77826;SDS011;67016;42.508;25.678;2023-06-14T17:03:37;5.72;;;3.00;;
77826;SDS011;67016;42.508;25.678;2023-06-14T17:06:05;3.60;;;3.22;;
77826;SDS011;67016;42.508;25.678;2023-06-14T17:08:44;12.10;;;10.77;;
77826;SDS011;67016;42.508;25.678;2023-06-14T17:11:10;7.88;;;6.80;;
77826;SDS011;67016;42.508;25.678;2023-06-14T17:13:35;6.50;;;4.10;;
77826;SDS011;67016;42.508;25.678;2023-06-14T17:16:01;6.28;;;4.15;;
77826;SDS011;67016;42.508;25.678;2023-06-14T17:18:27;6.13;;;4.93;;
77826;SDS011;67016;42.508;25.678;2023-06-14T17:20:53;5.65;;;3.60;;
77826;SDS011;67016;42.508;25.678;2023-06-14T17:23:19;8.13;;;3.80;;
77826;SDS011;67016;42.508;25.678;2023-06-14T17:25:45;5.55;;;3.80;;
77826;SDS011;67016;42.508;25.678;2023-06-14T17:28:11;4.68;;;3.30;;
77826;SDS011;67016;42.508;25.678;2023-06-14T17:30:36;5.93;;;3.67;;
77826;SDS011;67016;42.508;25.678;2023-06-14T17:33:02;4.68;;;4.05;;
77826;SDS011;67016;42.508;25.678;2023-06-14T17:35:42;4.80;;;4.30;;
77826;SDS011;67016;42.508;25.678;2023-06-14T17:38:08;11.15;;;4.63;;
77826;SDS011;67016;42.508;25.678;2023-06-14T17:40:36;4.50;;;4.00;;
77826;SDS011;67016;42.508;25.678;2023-06-14T17:43:02;6.55;;;3.80;;
77826;SDS011;67016;42.508;25.678;2023-06-14T17:45:27;6.68;;;4.18;;
77826;SDS011;67016;42.508;25.678;2023-06-14T17:47:56;6.93;;;4.13;;
77826;SDS011;67016;42.508;25.678;2023-06-14T17:50:27;11.70;;;4.13;;
77826;SDS011;67016;42.508;25.678;2023-06-14T17:52:53;7.15;;;4.90;;
77826;SDS011;67016;42.508;25.678;2023-06-14T17:55:19;9.57;;;5.53;;
77826;SDS011;67016;42.508;25.678;2023-06-14T17:57:45;10.68;;;4.60;;
77826;SDS011;67016;42.508;25.678;2023-06-14T18:00:10;9.23;;;5.75;;
77826;SDS011;67016;42.508;25.678;2023-06-14T18:02:36;12.45;;;4.95;;
77826;SDS011;67016;42.508;25.678;2023-06-14T18:05:02;7.50;;;4.85;;
77826;SDS011;67016;42.508;25.678;2023-06-14T18:07:28;6.43;;;4.60;;
77826;SDS011;67016;42.508;25.678;2023-06-14T18:09:53;11.13;;;4.93;;
77826;SDS011;67016;42.508;25.678;2023-06-14T18:12:19;6.43;;;4.70;;
77826;SDS011;67016;42.508;25.678;2023-06-14T18:14:45;8.07;;;4.40;;
77826;SDS011;67016;42.508;25.678;2023-06-14T18:17:10;7.47;;;4.88;;
77826;SDS011;67016;42.508;25.678;2023-06-14T18:19:36;6.22;;;4.95;;
77826;SDS011;67016;42.508;25.678;2023-06-14T18:22:02;6.22;;;4.50;;
77826;SDS011;67016;42.508;25.678;2023-06-14T18:24:29;4.97;;;4.45;;
77826;SDS011;67016;42.508;25.678;2023-06-14T18:26:55;6.85;;;4.80;;
77826;SDS011;67016;42.508;25.678;2023-06-14T18:29:21;7.45;;;5.03;;
77826;SDS011;67016;42.508;25.678;2023-06-14T18:31:47;7.70;;;4.80;;
77826;SDS011;67016;42.508;25.678;2023-06-14T18:34:13;11.38;;;4.90;;
77826;SDS011;67016;42.508;25.678;2023-06-14T18:36:38;7.22;;;4.70;;
77826;SDS011;67016;42.508;25.678;2023-06-14T18:39:05;6.88;;;4.47;;
77826;SDS011;67016;42.508;25.678;2023-06-14T18:41:31;8.32;;;4.78;;
77826;SDS011;67016;42.508;25.678;2023-06-14T18:43:57;8.15;;;5.25;;
77826;SDS011;67016;42.508;25.678;2023-06-14T18:46:24;13.32;;;4.57;;
77826;SDS011;67016;42.508;25.678;2023-06-14T18:48:51;9.63;;;4.68;;
77826;SDS011;67016;42.508;25.678;2023-06-14T18:51:17;8.95;;;5.35;;
77826;SDS011;67016;42.508;25.678;2023-06-14T18:53:43;6.82;;;4.38;;
77826;SDS011;67016;42.508;25.678;2023-06-14T18:56:08;5.63;;;5.05;;
77826;SDS011;67016;42.508;25.678;2023-06-14T18:58:35;13.82;;;4.88;;
77826;SDS011;67016;42.508;25.678;2023-06-14T19:01:00;6.70;;;4.78;;
77826;SDS011;67016;42.508;25.678;2023-06-14T19:03:26;5.75;;;4.18;;
77826;SDS011;67016;42.508;25.678;2023-06-14T19:05:52;7.18;;;4.57;;
77826;SDS011;67016;42.508;25.678;2023-06-14T19:08:20;10.32;;;4.90;;
77826;SDS011;67016;42.508;25.678;2023-06-14T19:10:47;6.07;;;5.47;;
77826;SDS011;67016;42.508;25.678;2023-06-14T19:13:12;7.57;;;4.70;;
77826;SDS011;67016;42.508;25.678;2023-06-14T19:15:38;5.75;;;4.88;;
77826;SDS011;67016;42.508;25.678;2023-06-14T19:18:07;8.25;;;4.82;;
77826;SDS011;67016;42.508;25.678;2023-06-14T19:20:38;8.02;;;5.00;;
77826;SDS011;67016;42.508;25.678;2023-06-14T19:23:03;10.40;;;5.28;;
77826;SDS011;67016;42.508;25.678;2023-06-14T19:25:30;7.63;;;5.13;;
77826;SDS011;67016;42.508;25.678;2023-06-14T19:27:56;12.98;;;5.45;;
77826;SDS011;67016;42.508;25.678;2023-06-14T19:35:15;6.90;;;5.47;;
77826;SDS011;67016;42.508;25.678;2023-06-14T19:37:52;10.77;;;6.13;;
77826;SDS011;67016;42.508;25.678;2023-06-14T19:40:17;9.55;;;5.50;;
77826;SDS011;67016;42.508;25.678;2023-06-14T19:42:44;6.38;;;5.47;;
77826;SDS011;67016;42.508;25.678;2023-06-14T19:45:10;5.70;;;5.10;;
77826;SDS011;67016;42.508;25.678;2023-06-14T19:54:21;6.50;;;5.40;;
77826;SDS011;67016;42.508;25.678;2023-06-14T19:56:47;7.88;;;5.90;;
77826;SDS011;67016;42.508;25.678;2023-06-14T19:59:15;8.77;;;5.45;;
77826;SDS011;67016;42.508;25.678;2023-06-14T20:01:45;6.57;;;5.05;;
77826;SDS011;67016;42.508;25.678;2023-06-14T20:04:11;7.53;;;5.47;;
77826;SDS011;67016;42.508;25.678;2023-06-14T20:06:37;9.60;;;6.00;;
77826;SDS011;67016;42.508;25.678;2023-06-14T20:09:02;9.43;;;5.95;;
77826;SDS011;67016;42.508;25.678;2023-06-14T20:11:40;7.40;;;5.57;;
77826;SDS011;67016;42.508;25.678;2023-06-14T20:14:05;11.65;;;5.78;;
77826;SDS011;67016;42.508;25.678;2023-06-14T20:16:31;11.75;;;5.95;;
77826;SDS011;67016;42.508;25.678;2023-06-14T20:18:58;6.57;;;5.63;;
77826;SDS011;67016;42.508;25.678;2023-06-14T20:21:26;7.55;;;5.20;;
77826;SDS011;67016;42.508;25.678;2023-06-14T20:23:52;9.25;;;5.63;;
77826;SDS011;67016;42.508;25.678;2023-06-14T20:26:18;10.77;;;5.70;;
77826;SDS011;67016;42.508;25.678;2023-06-14T20:28:44;7.80;;;5.82;;
77826;SDS011;67016;42.508;25.678;2023-06-14T20:31:10;6.97;;;5.82;;
77826;SDS011;67016;42.508;25.678;2023-06-14T20:33:38;7.03;;;5.40;;
77826;SDS011;67016;42.508;25.678;2023-06-14T20:36:04;8.60;;;5.70;;
77826;SDS011;67016;42.508;25.678;2023-06-14T20:38:30;7.47;;;5.75;;
77826;SDS011;67016;42.508;25.678;2023-06-14T20:40:55;11.00;;;5.95;;
77826;SDS011;67016;42.508;25.678;2023-06-14T20:43:24;10.40;;;5.80;;
77826;SDS011;67016;42.508;25.678;2023-06-14T20:45:50;9.38;;;5.97;;
77826;SDS011;67016;42.508;25.678;2023-06-14T20:48:24;7.03;;;5.68;;
77826;SDS011;67016;42.508;25.678;2023-06-14T20:50:50;7.13;;;6.15;;
77826;SDS011;67016;42.508;25.678;2023-06-14T20:53:17;7.07;;;5.80;;
77826;SDS011;67016;42.508;25.678;2023-06-14T20:55:42;8.55;;;5.80;;
77826;SDS011;67016;42.508;25.678;2023-06-14T20:58:08;7.63;;;5.07;;
77826;SDS011;67016;42.508;25.678;2023-06-14T21:00:34;12.13;;;5.53;;
77826;SDS011;67016;42.508;25.678;2023-06-14T21:03:05;11.90;;;6.35;;
77826;SDS011;67016;42.508;25.678;2023-06-14T21:05:31;7.72;;;5.47;;
77826;SDS011;67016;42.508;25.678;2023-06-14T21:07:57;6.63;;;5.70;;
77826;SDS011;67016;42.508;25.678;2023-06-14T21:10:24;8.82;;;6.70;;
77826;SDS011;67016;42.508;25.678;2023-06-14T21:12:52;7.88;;;5.70;;
77826;SDS011;67016;42.508;25.678;2023-06-14T21:15:20;7.20;;;6.18;;
77826;SDS011;67016;42.508;25.678;2023-06-14T21:17:53;9.90;;;5.93;;
77826;SDS011;67016;42.508;25.678;2023-06-14T21:20:19;8.02;;;6.40;;
77826;SDS011;67016;42.508;25.678;2023-06-14T21:22:44;8.50;;;6.03;;
77826;SDS011;67016;42.508;25.678;2023-06-14T21:25:12;6.38;;;5.65;;
77826;SDS011;67016;42.508;25.678;2023-06-14T21:27:38;9.68;;;6.15;;
77826;SDS011;67016;42.508;25.678;2023-06-14T21:30:04;7.15;;;5.93;;
77826;SDS011;67016;42.508;25.678;2023-06-14T21:32:30;6.43;;;5.70;;
77826;SDS011;67016;42.508;25.678;2023-06-14T21:34:56;8.80;;;5.78;;
77826;SDS011;67016;42.508;25.678;2023-06-14T21:37:22;14.35;;;5.85;;
77826;SDS011;67016;42.508;25.678;2023-06-14T21:39:48;8.00;;;6.50;;
77826;SDS011;67016;42.508;25.678;2023-06-14T21:42:14;12.55;;;6.20;;
77826;SDS011;67016;42.508;25.678;2023-06-14T21:44:40;7.95;;;5.70;;
77826;SDS011;67016;42.508;25.678;2023-06-14T21:47:09;7.93;;;5.50;;
77826;SDS011;67016;42.508;25.678;2023-06-14T21:49:35;7.47;;;5.80;;
77826;SDS011;67016;42.508;25.678;2023-06-14T21:52:01;6.60;;;5.70;;
77826;SDS011;67016;42.508;25.678;2023-06-14T21:54:28;6.55;;;5.40;;
77826;SDS011;67016;42.508;25.678;2023-06-14T21:56:54;6.72;;;5.75;;
77826;SDS011;67016;42.508;25.678;2023-06-14T21:59:19;7.38;;;5.80;;
77826;SDS011;67016;42.508;25.678;2023-06-14T22:01:45;7.70;;;6.53;;
77826;SDS011;67016;42.508;25.678;2023-06-14T22:04:11;6.70;;;6.00;;
77826;SDS011;67016;42.508;25.678;2023-06-14T22:06:36;13.75;;;6.50;;
77826;SDS011;67016;42.508;25.678;2023-06-14T22:09:02;9.30;;;5.82;;
77826;SDS011;67016;42.508;25.678;2023-06-14T22:11:28;7.22;;;5.93;;
77826;SDS011;67016;42.508;25.678;2023-06-14T22:14:00;10.93;;;6.05;;
77826;SDS011;67016;42.508;25.678;2023-06-14T22:16:26;11.60;;;5.80;;
77826;SDS011;67016;42.508;25.678;2023-06-14T22:18:52;7.10;;;5.95;;
77826;SDS011;67016;42.508;25.678;2023-06-14T22:21:22;9.77;;;5.97;;
77826;SDS011;67016;42.508;25.678;2023-06-14T22:23:49;6.43;;;5.55;;
77826;SDS011;67016;42.508;25.678;2023-06-14T22:26:14;8.30;;;6.45;;
77826;SDS011;67016;42.508;25.678;2023-06-14T22:28:41;7.95;;;5.85;;
77826;SDS011;67016;42.508;25.678;2023-06-14T22:31:08;11.05;;;6.43;;
77826;SDS011;67016;42.508;25.678;2023-06-14T22:33:36;8.82;;;5.60;;
77826;SDS011;67016;42.508;25.678;2023-06-14T22:36:07;12.02;;;6.20;;
77826;SDS011;67016;42.508;25.678;2023-06-14T22:38:34;11.68;;;5.97;;
77826;SDS011;67016;42.508;25.678;2023-06-14T22:41:05;9.50;;;6.15;;
77826;SDS011;67016;42.508;25.678;2023-06-14T22:43:36;10.23;;;6.45;;
77826;SDS011;67016;42.508;25.678;2023-06-14T22:46:04;8.20;;;6.22;;
77826;SDS011;67016;42.508;25.678;2023-06-14T22:48:32;10.05;;;6.40;;
77826;SDS011;67016;42.508;25.678;2023-06-14T22:51:12;6.50;;;5.90;;
77826;SDS011;67016;42.508;25.678;2023-06-14T22:53:38;8.80;;;6.68;;
77826;SDS011;67016;42.508;25.678;2023-06-14T22:56:05;10.27;;;6.47;;
77826;SDS011;67016;42.508;25.678;2023-06-14T22:58:31;7.70;;;6.50;;
77826;SDS011;67016;42.508;25.678;2023-06-14T23:00:59;7.40;;;6.57;;
77826;SDS011;67016;42.508;25.678;2023-06-14T23:03:26;10.68;;;6.78;;
77826;SDS011;67016;42.508;25.678;2023-06-14T23:05:53;9.20;;;6.72;;
77826;SDS011;67016;42.508;25.678;2023-06-14T23:08:24;7.75;;;6.95;;
77826;SDS011;67016;42.508;25.678;2023-06-14T23:10:51;9.20;;;6.60;;
77826;SDS011;67016;42.508;25.678;2023-06-14T23:13:16;7.03;;;6.13;;
77826;SDS011;67016;42.508;25.678;2023-06-14T23:15:42;7.50;;;6.38;;
77826;SDS011;67016;42.508;25.678;2023-06-14T23:18:08;12.68;;;6.85;;
77826;SDS011;67016;42.508;25.678;2023-06-14T23:20:35;9.73;;;6.70;;
77826;SDS011;67016;42.508;25.678;2023-06-14T23:23:01;9.20;;;6.90;;
77826;SDS011;67016;42.508;25.678;2023-06-14T23:25:28;11.30;;;6.35;;
77826;SDS011;67016;42.508;25.678;2023-06-14T23:28:00;9.75;;;6.43;;
77826;SDS011;67016;42.508;25.678;2023-06-14T23:30:28;9.27;;;7.00;;
77826;SDS011;67016;42.508;25.678;2023-06-14T23:33:05;8.65;;;6.75;;
77826;SDS011;67016;42.508;25.678;2023-06-14T23:35:43;7.88;;;6.65;;
77826;SDS011;67016;42.508;25.678;2023-06-14T23:38:08;9.30;;;6.63;;
77826;SDS011;67016;42.508;25.678;2023-06-14T23:40:38;8.27;;;6.28;;
77826;SDS011;67016;42.508;25.678;2023-06-14T23:43:04;7.65;;;6.28;;
77826;SDS011;67016;42.508;25.678;2023-06-14T23:45:35;7.25;;;6.40;;
77826;SDS011;67016;42.508;25.678;2023-06-14T23:48:02;10.43;;;7.15;;
77826;SDS011;67016;42.508;25.678;2023-06-14T23:50:28;12.50;;;6.65;;
77826;SDS011;67016;42.508;25.678;2023-06-14T23:52:53;9.90;;;6.78;;
77826;SDS011;67016;42.508;25.678;2023-06-14T23:55:27;10.38;;;6.38;;
77826;SDS011;67016;42.508;25.678;2023-06-14T23:57:57;12.68;;;7.03;;
